createdAt,value
2018-07-13T00:00:13.708Z,19.83
2018-07-13T00:02:42.927Z,19.77
2018-07-13T00:05:12.010Z,19.71
2018-07-13T00:07:40.877Z,19.64
2018-07-13T00:10:10.148Z,19.62
2018-07-13T00:12:38.755Z,19.57
2018-07-13T00:15:11.362Z,19.59
2018-07-13T00:17:40.602Z,19.63
2018-07-13T00:20:09.732Z,19.61
2018-07-13T00:22:39.767Z,19.75
2018-07-13T00:25:08.642Z,19.62
2018-07-13T00:27:37.406Z,19.52
2018-07-13T00:30:06.649Z,19.58
2018-07-13T00:32:36.083Z,19.54
2018-07-13T00:35:05.144Z,19.48
2018-07-13T00:37:34.637Z,19.40
2018-07-13T00:40:03.577Z,19.34
2018-07-13T00:42:32.637Z,19.24
2018-07-13T00:45:02.050Z,19.13
2018-07-13T00:47:31.131Z,19.15
2018-07-13T00:49:59.917Z,19.19
2018-07-13T00:52:29.424Z,19.20
2018-07-13T00:54:58.403Z,19.16
2018-07-13T00:57:28.029Z,19.13
2018-07-13T00:59:57.043Z,19.10
2018-07-13T01:02:25.982Z,19.09
2018-07-13T01:04:54.907Z,19.10
2018-07-13T01:07:24.192Z,19.04
2018-07-13T01:09:53.209Z,18.97
2018-07-13T01:12:22.727Z,18.90
2018-07-13T01:14:51.775Z,18.76
2018-07-13T01:17:24.214Z,18.73
2018-07-13T01:19:53.358Z,18.63
2018-07-13T01:22:22.275Z,18.54
2018-07-13T01:24:51.490Z,18.46
2018-07-13T01:27:20.835Z,18.51
2018-07-13T01:29:49.738Z,18.46
2018-07-13T01:32:19.598Z,18.40
2018-07-13T01:34:49.274Z,18.41
2018-07-13T01:37:18.501Z,18.37
2018-07-13T01:39:47.610Z,18.34
2018-07-13T01:42:16.619Z,18.30
2018-07-13T01:44:45.691Z,18.29
2018-07-13T01:47:14.966Z,18.38
2018-07-13T01:49:43.782Z,18.34
2018-07-13T01:52:12.875Z,18.31
2018-07-13T01:54:42.699Z,18.23
2018-07-13T01:57:11.855Z,18.27
2018-07-13T01:59:40.962Z,18.42
2018-07-13T02:02:09.992Z,18.51
2018-07-13T02:04:38.706Z,18.45
2018-07-13T02:07:07.757Z,18.41
2018-07-13T02:09:37.388Z,18.40
2018-07-13T02:12:06.531Z,18.37
2018-07-13T02:14:35.422Z,18.38
2018-07-13T02:17:05.180Z,18.32
2018-07-13T02:19:34.258Z,18.44
2018-07-13T02:22:03.733Z,18.40
2018-07-13T02:24:33.206Z,18.35
2018-07-13T02:27:02.016Z,18.42
2018-07-13T02:29:30.863Z,18.42
2018-07-13T02:32:00.192Z,18.39
2018-07-13T02:34:28.864Z,18.31
2018-07-13T02:36:58.045Z,18.32
2018-07-13T02:39:27.246Z,18.31
2018-07-13T02:41:55.997Z,18.32
2018-07-13T02:44:24.939Z,18.34
2018-07-13T02:46:54.451Z,18.30
2018-07-13T02:49:23.324Z,18.27
2018-07-13T02:51:52.932Z,18.21
2018-07-13T02:54:22.155Z,18.20
2018-07-13T02:56:51.662Z,18.17
2018-07-13T02:59:20.540Z,18.17
2018-07-13T03:01:49.962Z,18.18
2018-07-13T03:04:19.019Z,18.14
2018-07-13T03:06:48.344Z,18.13
2018-07-13T03:09:17.517Z,18.11
2018-07-13T03:11:46.635Z,18.12
2018-07-13T03:14:16.558Z,18.29
2018-07-13T03:16:45.594Z,18.49
2018-07-13T03:19:14.423Z,18.83
2018-07-13T03:21:43.115Z,19.19
2018-07-13T03:24:12.344Z,19.62
2018-07-13T03:26:41.288Z,20.08
2018-07-13T03:29:10.316Z,20.50
2018-07-13T03:31:39.932Z,20.95
2018-07-13T03:34:09.523Z,21.44
2018-07-13T03:36:38.593Z,21.81
2018-07-13T03:39:07.979Z,22.19
2018-07-13T03:41:37.131Z,22.60
2018-07-13T03:44:06.940Z,22.94
2018-07-13T03:46:36.356Z,23.39
2018-07-13T03:49:05.231Z,23.60
2018-07-13T03:51:34.539Z,23.85
2018-07-13T03:54:03.582Z,24.25
2018-07-13T03:56:32.819Z,24.63
2018-07-13T03:59:01.847Z,24.81
2018-07-13T04:01:31.135Z,24.89
2018-07-13T04:03:59.918Z,25.18
2018-07-13T04:06:28.640Z,25.56
2018-07-13T04:08:58.139Z,26.09
2018-07-13T04:11:27.821Z,26.23
2018-07-13T04:13:57.233Z,26.15
2018-07-13T04:16:26.669Z,26.62
2018-07-13T04:18:56.246Z,26.78
2018-07-13T04:21:25.346Z,26.76
2018-07-13T04:23:55.080Z,27.30
2018-07-13T04:26:24.076Z,28.01
2018-07-13T04:28:53.253Z,28.89
2018-07-13T04:31:22.563Z,29.14
2018-07-13T04:33:51.447Z,29.25
2018-07-13T04:36:20.122Z,29.12
2018-07-13T04:38:49.166Z,29.91
2018-07-13T04:41:18.218Z,29.98
2018-07-13T04:43:47.113Z,30.37
2018-07-13T04:46:17.351Z,30.97
2018-07-13T04:48:46.522Z,31.45
2018-07-13T04:51:15.493Z,31.86
2018-07-13T04:53:44.845Z,31.95
2018-07-13T04:56:14.253Z,32.09
2018-07-13T04:58:43.544Z,32.60
2018-07-13T05:01:13.051Z,32.56
2018-07-13T05:03:42.346Z,32.85
2018-07-13T05:06:11.399Z,32.73
2018-07-13T05:08:41.071Z,32.37
2018-07-13T05:11:10.139Z,32.30
2018-07-13T05:13:39.447Z,32.16
2018-07-13T05:16:09.207Z,32.27
2018-07-13T05:18:38.157Z,32.21
2018-07-13T05:21:07.468Z,31.78
2018-07-13T05:23:36.784Z,31.68
2018-07-13T05:26:06.070Z,31.68
2018-07-13T05:28:35.210Z,31.66
2018-07-13T05:31:04.505Z,32.47
2018-07-13T05:33:33.662Z,33.12
2018-07-13T05:36:02.855Z,33.84
2018-07-13T05:38:32.216Z,34.25
2018-07-13T05:41:01.484Z,34.08
2018-07-13T05:43:30.675Z,34.03
2018-07-13T05:46:04.552Z,33.95
2018-07-13T05:48:34.484Z,33.61
2018-07-13T05:51:03.669Z,34.28
2018-07-13T05:53:32.753Z,33.91
2018-07-13T05:56:02.568Z,34.13
2018-07-13T05:58:31.739Z,33.65
2018-07-13T06:01:00.906Z,32.99
2018-07-13T06:03:31.336Z,32.12
2018-07-13T06:06:01.075Z,32.27
2018-07-13T06:08:32.061Z,32.17
2018-07-13T06:11:03.088Z,32.88
2018-07-13T06:13:34.671Z,32.76
2018-07-13T06:16:06.564Z,32.93
2018-07-13T06:18:35.343Z,32.73
2018-07-13T06:21:04.742Z,32.82
2018-07-13T06:23:34.011Z,32.62
2018-07-13T06:26:03.186Z,32.70
2018-07-13T06:28:32.483Z,33.17
2018-07-13T06:31:01.763Z,33.41
2018-07-13T06:33:30.916Z,33.19
2018-07-13T06:35:59.621Z,33.22
2018-07-13T06:38:28.966Z,33.85
2018-07-13T06:40:59.307Z,34.78
2018-07-13T06:43:28.276Z,35.93
2018-07-13T06:45:57.826Z,36.12
2018-07-13T06:48:26.907Z,36.36
2018-07-13T06:50:55.998Z,35.57
2018-07-13T06:53:24.894Z,36.11
2018-07-13T06:55:54.437Z,36.23
2018-07-13T06:58:35.056Z,35.65
2018-07-13T07:01:06.878Z,35.20
2018-07-13T07:03:42.962Z,34.79
2018-07-13T07:06:13.884Z,34.60
2018-07-13T07:08:47.275Z,34.37
2018-07-13T07:11:16.562Z,35.03
2018-07-13T07:13:46.651Z,35.56
2018-07-13T07:16:16.179Z,35.76
2018-07-13T07:18:44.998Z,35.77
2018-07-13T07:21:13.788Z,35.26
2018-07-13T07:23:42.890Z,33.64
2018-07-13T07:26:12.195Z,33.18
2018-07-13T07:28:41.237Z,34.05
2018-07-13T07:31:10.187Z,34.81
2018-07-13T07:33:39.185Z,35.14
2018-07-13T07:36:08.506Z,35.72
2018-07-13T07:38:37.472Z,36.40
2018-07-13T07:41:06.781Z,36.99
2018-07-13T07:43:35.761Z,36.47
2018-07-13T07:46:04.752Z,37.07
2018-07-13T07:48:33.578Z,37.03
2018-07-13T07:51:02.639Z,37.70
2018-07-13T07:53:31.747Z,37.50
2018-07-13T07:56:02.355Z,38.07
2018-07-13T07:58:31.174Z,37.12
2018-07-13T08:01:00.314Z,36.16
2018-07-13T08:03:29.151Z,35.73
2018-07-13T08:05:58.127Z,35.36
2018-07-13T08:08:27.215Z,34.96
2018-07-13T08:10:56.519Z,35.07
2018-07-13T08:13:25.485Z,35.40
2018-07-13T08:15:54.231Z,33.98
2018-07-13T08:18:23.559Z,33.11
2018-07-13T08:20:52.478Z,33.65
2018-07-13T08:23:21.568Z,34.44
2018-07-13T08:25:51.015Z,35.43
2018-07-13T08:28:20.122Z,34.95
2018-07-13T08:30:51.941Z,33.81
2018-07-13T08:33:21.005Z,32.65
2018-07-13T08:35:49.872Z,32.11
2018-07-13T08:38:19.013Z,31.15
2018-07-13T08:40:48.278Z,30.39
2018-07-13T08:43:17.399Z,31.20
2018-07-13T08:45:46.288Z,32.06
2018-07-13T08:48:15.342Z,33.03
2018-07-13T08:50:44.462Z,33.07
2018-07-13T08:53:13.623Z,32.82
2018-07-13T08:55:42.967Z,33.81
2018-07-13T08:58:11.906Z,34.37
2018-07-13T09:00:41.147Z,34.27
2018-07-13T09:03:10.563Z,34.44
2018-07-13T09:05:40.009Z,34.04
2018-07-13T09:08:08.959Z,33.63
2018-07-13T09:10:38.480Z,33.94
2018-07-13T09:13:07.745Z,34.07
2018-07-13T09:15:36.956Z,34.04
2018-07-13T09:18:06.559Z,33.59
2018-07-13T09:20:35.559Z,33.69
2018-07-13T09:23:04.575Z,33.61
2018-07-13T09:25:33.995Z,32.80
2018-07-13T09:28:03.052Z,32.38
2018-07-13T09:30:31.907Z,31.39
2018-07-13T09:33:00.884Z,31.89
2018-07-13T09:35:29.831Z,31.56
2018-07-13T09:37:59.379Z,31.75
2018-07-13T09:40:28.758Z,32.58
2018-07-13T09:42:58.835Z,33.14
2018-07-13T09:45:27.671Z,33.58
2018-07-13T09:47:56.971Z,33.49
2018-07-13T09:50:25.949Z,32.51
2018-07-13T09:52:55.397Z,31.67
2018-07-13T09:55:24.367Z,31.98
2018-07-13T09:57:53.660Z,32.18
2018-07-13T10:00:22.829Z,32.12
2018-07-13T10:02:52.473Z,31.81
2018-07-13T10:05:21.660Z,31.43
2018-07-13T10:07:50.635Z,31.33
2018-07-13T10:10:19.752Z,30.76
2018-07-13T10:12:48.643Z,30.86
2018-07-13T10:15:17.736Z,31.25
2018-07-13T10:17:46.707Z,31.60
2018-07-13T10:20:15.622Z,31.33
2018-07-13T10:22:45.222Z,31.06
2018-07-13T10:25:14.471Z,30.59
2018-07-13T10:27:43.532Z,30.70
2018-07-13T10:30:13.839Z,30.83
2018-07-13T10:32:44.339Z,31.33
2018-07-13T10:35:13.551Z,31.53
2018-07-13T10:37:42.974Z,31.41
2018-07-13T10:40:11.898Z,31.66
2018-07-13T10:42:40.771Z,31.76
2018-07-13T10:45:09.673Z,31.85
2018-07-13T10:47:40.376Z,31.99
2018-07-13T10:50:09.164Z,31.59
2018-07-13T10:52:38.381Z,31.52
2018-07-13T10:55:09.638Z,31.33
2018-07-13T10:57:38.602Z,31.65
2018-07-13T11:00:08.206Z,31.99
2018-07-13T11:02:37.609Z,32.19
2018-07-13T11:05:06.415Z,32.05
2018-07-13T11:07:35.683Z,32.50
2018-07-13T11:10:05.617Z,32.56
2018-07-13T11:12:34.731Z,32.40
2018-07-13T11:15:03.650Z,32.14
2018-07-13T11:17:33.418Z,31.89
2018-07-13T11:20:02.423Z,31.96
2018-07-13T11:22:31.066Z,32.32
2018-07-13T11:25:00.247Z,32.16
2018-07-13T11:27:29.028Z,31.87
2018-07-13T11:29:57.991Z,32.31
2018-07-13T11:32:27.253Z,32.24
2018-07-13T11:34:56.254Z,32.47
2018-07-13T11:37:25.045Z,32.00
2018-07-13T11:39:54.367Z,29.25
2018-07-13T11:42:23.285Z,27.47
2018-07-13T11:44:52.558Z,26.71
2018-07-13T11:47:21.571Z,25.69
2018-07-13T11:49:51.028Z,25.42
2018-07-13T11:52:20.004Z,25.51
2018-07-13T11:54:49.390Z,25.61
2018-07-13T11:57:18.532Z,25.55
2018-07-13T11:59:47.970Z,25.67
2018-07-13T12:02:17.316Z,25.89
2018-07-13T12:04:46.957Z,26.29
2018-07-13T12:07:15.764Z,26.33
2018-07-13T12:09:44.791Z,26.09
2018-07-13T12:12:14.786Z,26.08
2018-07-13T12:14:44.131Z,26.10
2018-07-13T12:17:13.753Z,26.06
2018-07-13T12:19:42.567Z,25.73
2018-07-13T12:22:11.867Z,25.67
2018-07-13T12:24:41.285Z,25.65
2018-07-13T12:27:10.427Z,25.93
2018-07-13T12:29:39.236Z,25.91
2018-07-13T12:32:08.703Z,25.83
2018-07-13T12:34:38.670Z,25.95
2018-07-13T12:37:08.368Z,25.85
2018-07-13T12:39:37.545Z,25.50
2018-07-13T12:42:06.531Z,25.94
2018-07-13T12:44:35.570Z,25.74
2018-07-13T12:47:04.887Z,25.65
2018-07-13T12:49:33.542Z,25.52
2018-07-13T12:52:02.435Z,25.59
2018-07-13T12:54:31.704Z,25.75
2018-07-13T12:57:00.633Z,26.10
2018-07-13T12:59:30.925Z,26.64
2018-07-13T13:01:59.960Z,26.46
2018-07-13T13:04:28.707Z,26.45
2018-07-13T13:06:57.824Z,26.49
2018-07-13T13:09:27.045Z,26.36
2018-07-13T13:11:55.934Z,26.37
2018-07-13T13:14:25.129Z,26.58
2018-07-13T13:16:54.429Z,25.97
2018-07-13T13:19:23.616Z,25.91
2018-07-13T13:21:52.912Z,26.22
2018-07-13T13:24:21.844Z,26.54
2018-07-13T13:26:50.601Z,27.15
2018-07-13T13:29:22.930Z,26.75
2018-07-13T13:31:57.575Z,27.15
2018-07-13T13:34:26.691Z,27.60
2018-07-13T13:36:55.711Z,28.29
2018-07-13T13:39:24.528Z,28.38
2018-07-13T13:41:53.847Z,27.01
2018-07-13T13:44:22.871Z,27.33
2018-07-13T13:46:51.910Z,26.89
2018-07-13T13:49:21.628Z,27.35
2018-07-13T13:51:50.719Z,27.27
2018-07-13T13:54:19.718Z,27.05
2018-07-13T13:56:49.958Z,26.50
2018-07-13T13:59:19.211Z,26.84
2018-07-13T14:01:48.111Z,26.82
2018-07-13T14:04:17.555Z,25.85
2018-07-13T14:06:46.655Z,25.22
2018-07-13T14:09:15.870Z,25.28
2018-07-13T14:11:45.698Z,24.95
2018-07-13T14:14:14.726Z,24.78
2018-07-13T14:16:43.835Z,24.65
2018-07-13T14:19:13.251Z,24.87
2018-07-13T14:21:42.347Z,24.66
2018-07-13T14:24:11.341Z,24.38
2018-07-13T14:26:40.397Z,24.17
2018-07-13T14:29:09.263Z,24.43
2018-07-13T14:31:38.109Z,24.38
2018-07-13T14:34:08.026Z,24.63
2018-07-13T14:36:36.998Z,24.79
2018-07-13T14:39:08.363Z,24.79
2018-07-13T14:41:37.818Z,24.98
2018-07-13T14:44:06.978Z,25.16
2018-07-13T14:46:36.095Z,25.43
2018-07-13T14:49:05.075Z,25.61
2018-07-13T14:51:34.455Z,25.94
2018-07-13T14:54:03.880Z,26.20
2018-07-13T14:56:32.976Z,26.42
2018-07-13T14:59:01.993Z,26.52
2018-07-13T15:01:31.480Z,26.60
2018-07-13T15:04:00.594Z,26.58
2018-07-13T15:06:29.772Z,26.75
2018-07-13T15:08:59.443Z,26.57
2018-07-13T15:11:28.472Z,26.52
2018-07-13T15:13:57.467Z,26.72
2018-07-13T15:16:26.703Z,27.05
2018-07-13T15:18:55.874Z,27.41
2018-07-13T15:21:24.971Z,27.37
2018-07-13T15:23:54.903Z,27.51
2018-07-13T15:26:23.944Z,27.50
2018-07-13T15:28:52.883Z,27.69
2018-07-13T15:31:22.004Z,27.91
2018-07-13T15:33:50.971Z,28.39
2018-07-13T15:36:20.066Z,28.71
2018-07-13T15:38:49.456Z,28.42
2018-07-13T15:41:18.359Z,28.25
2018-07-13T15:43:47.472Z,28.09
2018-07-13T15:46:16.589Z,27.92
2018-07-13T15:48:45.635Z,27.46
2018-07-13T15:51:14.469Z,27.52
2018-07-13T15:53:44.318Z,27.26
2018-07-13T15:56:14.367Z,27.01
2018-07-13T15:58:43.555Z,26.96
2018-07-13T16:01:12.461Z,26.96
2018-07-13T16:03:41.487Z,26.95
2018-07-13T16:06:10.749Z,26.91
2018-07-13T16:08:39.896Z,26.92
2018-07-13T16:11:08.956Z,27.00
2018-07-13T16:13:37.971Z,27.12
2018-07-13T16:16:07.150Z,27.14
2018-07-13T16:18:36.414Z,27.22
2018-07-13T16:21:05.345Z,27.11
2018-07-13T16:23:34.416Z,26.94
2018-07-13T16:26:03.334Z,26.81
2018-07-13T16:28:32.691Z,26.79
2018-07-13T16:31:01.747Z,26.87
2018-07-13T16:33:31.512Z,26.80
2018-07-13T16:36:00.830Z,26.92
2018-07-13T16:38:30.555Z,26.97
2018-07-13T16:40:59.795Z,26.97
2018-07-13T16:43:30.703Z,26.69
2018-07-13T16:46:00.792Z,26.39
2018-07-13T16:48:29.614Z,26.35
2018-07-13T16:50:58.633Z,26.19
2018-07-13T16:53:27.808Z,26.20
2018-07-13T16:55:56.701Z,26.16
2018-07-13T16:58:25.901Z,25.99
2018-07-13T17:00:54.831Z,25.83
2018-07-13T17:03:24.042Z,25.72
2018-07-13T17:05:53.904Z,25.70
2018-07-13T17:08:24.173Z,25.52
2018-07-13T17:10:53.208Z,25.13
2018-07-13T17:13:22.187Z,24.77
2018-07-13T17:15:51.014Z,24.28
2018-07-13T17:18:20.299Z,24.10
2018-07-13T17:20:49.264Z,24.03
2018-07-13T17:23:18.470Z,23.94
2018-07-13T17:25:47.163Z,23.92
2018-07-13T17:28:16.267Z,23.76
2018-07-13T17:30:45.198Z,23.77
2018-07-13T17:33:14.187Z,23.88
2018-07-13T17:35:42.994Z,23.81
2018-07-13T17:38:12.011Z,23.78
2018-07-13T17:40:42.083Z,23.73
2018-07-13T17:43:11.254Z,23.73
2018-07-13T17:45:40.159Z,23.76
2018-07-13T17:48:09.206Z,23.74
2018-07-13T17:50:38.123Z,23.77
2018-07-13T17:53:07.087Z,23.68
2018-07-13T17:55:36.247Z,23.62
2018-07-13T17:58:05.247Z,23.69
2018-07-13T18:00:34.900Z,23.71
2018-07-13T18:03:03.962Z,23.68
2018-07-13T18:05:33.023Z,23.65
2018-07-13T18:08:02.139Z,23.65
2018-07-13T18:10:31.631Z,23.60
2018-07-13T18:13:00.815Z,23.62
2018-07-13T18:15:30.040Z,23.56
2018-07-13T18:17:59.124Z,23.49
2018-07-13T18:20:28.292Z,23.48
2018-07-13T18:22:57.670Z,23.44
2018-07-13T18:25:26.805Z,23.41
2018-07-13T18:27:55.716Z,23.31
2018-07-13T18:30:24.888Z,23.33
2018-07-13T18:32:53.819Z,23.25
2018-07-13T18:35:22.623Z,23.24
2018-07-13T18:37:51.806Z,23.19
2018-07-13T18:40:20.688Z,23.18
2018-07-13T18:42:49.669Z,23.14
2018-07-13T18:45:18.898Z,23.10
2018-07-13T18:47:47.593Z,23.05
2018-07-13T18:50:16.680Z,23.06
2018-07-13T18:52:45.599Z,23.08
2018-07-13T18:55:14.451Z,23.02
2018-07-13T18:57:43.331Z,23.07
2018-07-13T19:00:12.589Z,23.09
2018-07-13T19:02:41.643Z,23.12
2018-07-13T19:05:10.432Z,23.14
2018-07-13T19:07:39.753Z,23.04
2018-07-13T19:10:08.645Z,22.97
2018-07-13T19:12:37.436Z,22.90
2018-07-13T19:15:06.799Z,22.81
2018-07-13T19:17:35.721Z,22.82
2018-07-13T19:20:04.593Z,22.74
2018-07-13T19:22:33.600Z,22.77
2018-07-13T19:25:02.263Z,22.78
2018-07-13T19:27:31.343Z,22.69
2018-07-13T19:30:00.761Z,22.57
2018-07-13T19:32:29.585Z,22.55
2018-07-13T19:34:58.447Z,22.45
2018-07-13T19:37:28.530Z,22.38
2018-07-13T19:39:57.582Z,22.27
2018-07-13T19:42:27.284Z,22.15
2018-07-13T19:44:56.603Z,22.09
2018-07-13T19:47:26.603Z,22.07
2018-07-13T19:49:55.924Z,22.11
2018-07-13T19:52:25.735Z,21.99
2018-07-13T19:54:55.158Z,21.90
2018-07-13T19:57:24.371Z,21.89
2018-07-13T19:59:53.649Z,21.87
2018-07-13T20:02:22.603Z,21.88
2018-07-13T20:04:51.617Z,21.92
2018-07-13T20:07:20.629Z,21.87
2018-07-13T20:09:49.702Z,21.92
2018-07-13T20:12:19.139Z,21.79
2018-07-13T20:14:48.142Z,21.76
2018-07-13T20:17:17.030Z,21.69
2018-07-13T20:19:45.883Z,21.65
2018-07-13T20:22:15.192Z,21.62
2018-07-13T20:24:44.091Z,21.60
2018-07-13T20:27:12.795Z,21.57
2018-07-13T20:29:41.918Z,21.60
2018-07-13T20:32:10.877Z,21.66
2018-07-13T20:34:40.453Z,21.60
2018-07-13T20:37:10.096Z,21.58
2018-07-13T20:39:39.354Z,21.56
2018-07-13T20:42:08.571Z,21.51
2018-07-13T20:44:37.398Z,21.50
2018-07-13T20:47:06.852Z,21.45
2018-07-13T20:49:35.806Z,21.50
2018-07-13T20:52:06.106Z,21.40
2018-07-13T20:54:35.202Z,21.42
2018-07-13T20:57:03.852Z,21.40
2018-07-13T20:59:32.904Z,21.49
2018-07-13T21:02:01.791Z,21.51
2018-07-13T21:04:30.862Z,21.46
2018-07-13T21:07:00.038Z,21.47
2018-07-13T21:09:28.914Z,21.51
2018-07-13T21:11:57.743Z,21.50
2018-07-13T21:14:26.574Z,21.51
2018-07-13T21:16:55.635Z,21.46
2018-07-13T21:19:25.230Z,21.43
2018-07-13T21:21:54.363Z,21.49
2018-07-13T21:24:23.648Z,21.46
2018-07-13T21:26:52.587Z,21.43
2018-07-13T21:29:21.554Z,21.40
2018-07-13T21:31:50.735Z,21.26
2018-07-13T21:34:19.859Z,21.24
2018-07-13T21:36:48.731Z,21.13
2018-07-13T21:39:17.722Z,21.02
2018-07-13T21:41:46.465Z,20.87
2018-07-13T21:44:15.841Z,20.78
2018-07-13T21:46:44.882Z,20.76
2018-07-13T21:49:13.879Z,20.71
2018-07-13T21:51:43.208Z,20.70
2018-07-13T21:54:12.082Z,20.66
2018-07-13T21:56:41.591Z,20.56
2018-07-13T21:59:10.723Z,20.56
2018-07-13T22:01:39.760Z,20.49
2018-07-13T22:04:08.545Z,20.46
2018-07-13T22:06:37.754Z,20.42
2018-07-13T22:09:07.047Z,20.43
2018-07-13T22:11:36.075Z,20.39
2018-07-13T22:14:05.173Z,20.36
2018-07-13T22:16:34.778Z,20.32
2018-07-13T22:19:04.091Z,20.24
2018-07-13T22:21:33.627Z,20.22
2018-07-13T22:24:02.940Z,20.20
2018-07-13T22:26:31.826Z,20.16
2018-07-13T22:29:00.699Z,20.15
2018-07-13T22:31:29.995Z,20.10
2018-07-13T22:33:58.867Z,20.14
2018-07-13T22:36:27.800Z,20.10
2018-07-13T22:38:56.849Z,20.10
2018-07-13T22:41:26.262Z,20.08
2018-07-13T22:43:55.645Z,20.04
2018-07-13T22:46:25.266Z,20.02
2018-07-13T22:48:54.334Z,19.99
2018-07-13T22:51:23.595Z,20.00
2018-07-13T22:53:53.311Z,20.02
2018-07-13T22:56:22.708Z,19.96
2018-07-13T22:58:51.716Z,19.97
2018-07-13T23:01:21.263Z,19.95
2018-07-13T23:03:50.019Z,19.95
2018-07-13T23:06:19.188Z,20.06
2018-07-13T23:08:48.152Z,20.08
2018-07-13T23:11:17.160Z,20.03
2018-07-13T23:13:46.217Z,20.10
2018-07-13T23:16:15.235Z,20.08
2018-07-13T23:18:43.987Z,20.09
2018-07-13T23:21:13.465Z,20.18
2018-07-13T23:23:42.476Z,20.12
2018-07-13T23:26:11.313Z,20.11
2018-07-13T23:28:41.788Z,20.09
2018-07-13T23:31:10.871Z,20.10
2018-07-13T23:33:40.143Z,20.13
2018-07-13T23:36:09.276Z,20.11
2018-07-13T23:38:38.378Z,20.17
2018-07-13T23:41:07.565Z,20.22
2018-07-13T23:43:36.766Z,20.34
2018-07-13T23:46:05.962Z,20.30
2018-07-13T23:48:35.150Z,20.38
2018-07-13T23:51:05.568Z,20.41
2018-07-13T23:53:34.577Z,20.41
2018-07-13T23:56:04.388Z,20.39
2018-07-13T23:58:33.699Z,20.41
